sensor_id;sensor_type;location;lat;lon;timestamp;pressure;altitude;pressure_sealevel;temperature;humidity
59063;BME280;44851;45.648;9.004;2023-04-06T00:00:24;99250.78;;;7.11;39.42
59063;BME280;44851;45.648;9.004;2023-04-06T00:02:50;99255.38;;;7.19;39.74
59063;BME280;44851;45.648;9.004;2023-04-06T00:05:17;99246.50;;;6.99;39.24
59063;BME280;44851;45.648;9.004;2023-04-06T00:07:43;99255.91;;;7.00;39.66
59063;BME280;44851;45.648;9.004;2023-04-06T00:10:08;99249.78;;;7.01;38.96
59063;BME280;44851;45.648;9.004;2023-04-06T00:12:34;99244.44;;;7.15;39.43
59063;BME280;44851;45.648;9.004;2023-04-06T00:14:59;99242.19;;;7.11;39.21
59063;BME280;44851;45.648;9.004;2023-04-06T00:17:26;99246.66;;;7.09;38.95
59063;BME280;44851;45.648;9.004;2023-04-06T00:19:52;99241.88;;;7.03;39.32
59063;BME280;44851;45.648;9.004;2023-04-06T00:22:17;99235.38;;;6.97;40.20
59063;BME280;44851;45.648;9.004;2023-04-06T00:24:42;99233.97;;;6.93;38.82
59063;BME280;44851;45.648;9.004;2023-04-06T00:27:08;99232.84;;;7.08;39.43
59063;BME280;44851;45.648;9.004;2023-04-06T00:29:33;99234.34;;;7.00;38.56
59063;BME280;44851;45.648;9.004;2023-04-06T00:31:58;99231.19;;;7.07;39.16
59063;BME280;44851;45.648;9.004;2023-04-06T00:34:24;99226.00;;;7.07;38.79
59063;BME280;44851;45.648;9.004;2023-04-06T00:36:49;99227.28;;;7.02;38.65
59063;BME280;44851;45.648;9.004;2023-04-06T00:39:15;99222.66;;;6.94;38.14
59063;BME280;44851;45.648;9.004;2023-04-06T00:41:45;99231.44;;;7.04;38.30
59063;BME280;44851;45.648;9.004;2023-04-06T00:44:11;99224.66;;;6.90;38.08
59063;BME280;44851;45.648;9.004;2023-04-06T00:46:37;99221.88;;;7.05;38.39
59063;BME280;44851;45.648;9.004;2023-04-06T00:49:02;99229.75;;;7.03;38.49
59063;BME280;44851;45.648;9.004;2023-04-06T00:51:27;99223.38;;;6.96;38.08
59063;BME280;44851;45.648;9.004;2023-04-06T00:53:53;99228.84;;;7.04;38.24
59063;BME280;44851;45.648;9.004;2023-04-06T00:56:19;99232.28;;;6.92;38.35
59063;BME280;44851;45.648;9.004;2023-04-06T00:58:44;99220.72;;;6.85;37.91
59063;BME280;44851;45.648;9.004;2023-04-06T01:01:10;99230.19;;;6.97;38.08
59063;BME280;44851;45.648;9.004;2023-04-06T01:03:35;99226.41;;;6.90;38.73
59063;BME280;44851;45.648;9.004;2023-04-06T01:06:01;99232.22;;;6.93;38.75
59063;BME280;44851;45.648;9.004;2023-04-06T01:08:26;99223.47;;;6.71;37.99
59063;BME280;44851;45.648;9.004;2023-04-06T01:10:52;99242.72;;;6.79;38.19
59063;BME280;44851;45.648;9.004;2023-04-06T01:13:17;99238.25;;;6.81;38.66
59063;BME280;44851;45.648;9.004;2023-04-06T01:15:43;99240.47;;;6.75;38.46
59063;BME280;44851;45.648;9.004;2023-04-06T01:18:08;99237.75;;;6.76;38.45
59063;BME280;44851;45.648;9.004;2023-04-06T01:20:35;99233.75;;;6.72;38.53
59063;BME280;44851;45.648;9.004;2023-04-06T01:23:01;99235.91;;;6.78;38.72
59063;BME280;44851;45.648;9.004;2023-04-06T01:25:26;99238.41;;;6.91;38.72
59063;BME280;44851;45.648;9.004;2023-04-06T01:27:52;99238.16;;;6.83;38.69
59063;BME280;44851;45.648;9.004;2023-04-06T01:30:17;99235.28;;;6.75;38.93
59063;BME280;44851;45.648;9.004;2023-04-06T01:32:43;99233.00;;;6.70;38.65
59063;BME280;44851;45.648;9.004;2023-04-06T01:35:08;99240.84;;;6.57;38.50
59063;BME280;44851;45.648;9.004;2023-04-06T01:37:34;99232.81;;;6.60;38.57
59063;BME280;44851;45.648;9.004;2023-04-06T01:39:59;99238.88;;;6.61;39.39
59063;BME280;44851;45.648;9.004;2023-04-06T01:42:25;99231.03;;;6.74;39.47
59063;BME280;44851;45.648;9.004;2023-04-06T01:44:51;99236.09;;;6.75;39.58
59063;BME280;44851;45.648;9.004;2023-04-06T01:47:16;99239.69;;;6.61;39.63
59063;BME280;44851;45.648;9.004;2023-04-06T01:49:42;99233.50;;;6.51;39.75
59063;BME280;44851;45.648;9.004;2023-04-06T01:52:07;99233.00;;;6.46;39.54
59063;BME280;44851;45.648;9.004;2023-04-06T01:54:32;99229.06;;;6.40;39.11
59063;BME280;44851;45.648;9.004;2023-04-06T01:56:58;99231.97;;;6.36;39.09
59063;BME280;44851;45.648;9.004;2023-04-06T01:59:23;99229.91;;;6.41;39.82
59063;BME280;44851;45.648;9.004;2023-04-06T02:01:49;99233.25;;;6.54;39.61
59063;BME280;44851;45.648;9.004;2023-04-06T02:04:15;99238.69;;;6.51;39.78
59063;BME280;44851;45.648;9.004;2023-04-06T02:06:40;99230.59;;;6.43;40.21
59063;BME280;44851;45.648;9.004;2023-04-06T02:09:06;99236.09;;;6.38;40.19
59063;BME280;44851;45.648;9.004;2023-04-06T02:11:31;99241.91;;;6.42;40.35
59063;BME280;44851;45.648;9.004;2023-04-06T02:13:56;99238.91;;;6.23;40.04
59063;BME280;44851;45.648;9.004;2023-04-06T02:16:22;99229.50;;;6.22;40.58
59063;BME280;44851;45.648;9.004;2023-04-06T02:18:48;99236.34;;;6.23;40.67
59063;BME280;44851;45.648;9.004;2023-04-06T02:21:14;99237.06;;;6.25;40.12
59063;BME280;44851;45.648;9.004;2023-04-06T02:23:42;99239.78;;;6.10;40.64
59063;BME280;44851;45.648;9.004;2023-04-06T02:26:07;99231.91;;;6.12;41.23
59063;BME280;44851;45.648;9.004;2023-04-06T02:28:33;99228.09;;;6.05;41.10
59063;BME280;44851;45.648;9.004;2023-04-06T02:30:58;99231.50;;;6.05;40.91
59063;BME280;44851;45.648;9.004;2023-04-06T02:33:24;99235.63;;;5.95;40.63
59063;BME280;44851;45.648;9.004;2023-04-06T02:35:50;99236.34;;;5.84;41.11
59063;BME280;44851;45.648;9.004;2023-04-06T02:38:15;99231.06;;;5.73;41.01
59063;BME280;44851;45.648;9.004;2023-04-06T02:40:40;99231.47;;;5.80;41.57
59063;BME280;44851;45.648;9.004;2023-04-06T02:43:06;99226.53;;;5.77;41.51
59063;BME280;44851;45.648;9.004;2023-04-06T02:45:31;99228.59;;;5.72;41.45
59063;BME280;44851;45.648;9.004;2023-04-06T02:47:56;99225.06;;;5.73;41.61
59063;BME280;44851;45.648;9.004;2023-04-06T02:50:22;99236.13;;;5.75;41.73
59063;BME280;44851;45.648;9.004;2023-04-06T02:52:47;99227.94;;;5.68;41.52
59063;BME280;44851;45.648;9.004;2023-04-06T02:55:12;99221.34;;;5.77;41.44
59063;BME280;44851;45.648;9.004;2023-04-06T02:57:38;99235.59;;;5.70;41.24
59063;BME280;44851;45.648;9.004;2023-04-06T03:00:04;99230.25;;;5.73;41.38
59063;BME280;44851;45.648;9.004;2023-04-06T03:02:29;99230.94;;;5.62;41.26
59063;BME280;44851;45.648;9.004;2023-04-06T03:04:55;99232.81;;;5.60;41.58
59063;BME280;44851;45.648;9.004;2023-04-06T03:07:20;99233.34;;;5.65;41.63
59063;BME280;44851;45.648;9.004;2023-04-06T03:09:45;99230.44;;;5.70;41.93
59063;BME280;44851;45.648;9.004;2023-04-06T03:12:11;99234.56;;;5.59;41.67
59063;BME280;44851;45.648;9.004;2023-04-06T03:14:36;99238.47;;;5.52;41.92
59063;BME280;44851;45.648;9.004;2023-04-06T03:17:01;99228.47;;;5.60;42.55
59063;BME280;44851;45.648;9.004;2023-04-06T03:19:27;99226.38;;;5.53;42.24
59063;BME280;44851;45.648;9.004;2023-04-06T03:21:52;99228.38;;;5.49;42.02
59063;BME280;44851;45.648;9.004;2023-04-06T03:24:18;99227.44;;;5.50;41.98
59063;BME280;44851;45.648;9.004;2023-04-06T03:26:43;99231.84;;;5.35;42.23
59063;BME280;44851;45.648;9.004;2023-04-06T03:29:08;99228.97;;;5.40;42.12
59063;BME280;44851;45.648;9.004;2023-04-06T03:31:34;99228.53;;;5.33;42.56
59063;BME280;44851;45.648;9.004;2023-04-06T03:33:59;99233.38;;;5.25;42.87
59063;BME280;44851;45.648;9.004;2023-04-06T03:36:25;99229.91;;;5.39;42.75
59063;BME280;44851;45.648;9.004;2023-04-06T03:38:51;99231.44;;;5.29;42.58
59063;BME280;44851;45.648;9.004;2023-04-06T03:41:18;99236.06;;;5.24;42.67
59063;BME280;44851;45.648;9.004;2023-04-06T03:43:44;99229.09;;;5.11;43.27
59063;BME280;44851;45.648;9.004;2023-04-06T03:46:10;99226.06;;;5.05;42.31
59063;BME280;44851;45.648;9.004;2023-04-06T03:48:35;99233.41;;;4.98;42.98
59063;BME280;44851;45.648;9.004;2023-04-06T03:51:01;99230.00;;;4.98;43.44
59063;BME280;44851;45.648;9.004;2023-04-06T03:53:26;99235.81;;;5.01;43.61
59063;BME280;44851;45.648;9.004;2023-04-06T03:55:52;99228.22;;;4.98;43.46
59063;BME280;44851;45.648;9.004;2023-04-06T03:58:17;99236.38;;;4.92;43.20
59063;BME280;44851;45.648;9.004;2023-04-06T04:00:43;99232.81;;;4.80;43.56
59063;BME280;44851;45.648;9.004;2023-04-06T04:03:08;99234.59;;;4.80;44.17
59063;BME280;44851;45.648;9.004;2023-04-06T04:05:33;99237.03;;;4.96;43.94
59063;BME280;44851;45.648;9.004;2023-04-06T04:07:58;99240.63;;;4.93;44.04
59063;BME280;44851;45.648;9.004;2023-04-06T04:10:24;99231.50;;;4.88;43.58
59063;BME280;44851;45.648;9.004;2023-04-06T04:12:50;99233.78;;;4.92;44.14
59063;BME280;44851;45.648;9.004;2023-04-06T04:15:15;99237.50;;;4.88;44.20
59063;BME280;44851;45.648;9.004;2023-04-06T04:17:40;99239.75;;;4.80;43.92
59063;BME280;44851;45.648;9.004;2023-04-06T04:20:06;99241.19;;;4.84;43.83
59063;BME280;44851;45.648;9.004;2023-04-06T04:22:32;99249.31;;;4.78;43.64
59063;BME280;44851;45.648;9.004;2023-04-06T04:24:58;99250.44;;;4.74;44.33
59063;BME280;44851;45.648;9.004;2023-04-06T04:27:23;99247.53;;;4.66;43.90
59063;BME280;44851;45.648;9.004;2023-04-06T04:29:48;99250.28;;;4.63;44.43
59063;BME280;44851;45.648;9.004;2023-04-06T04:32:14;99252.25;;;4.59;44.43
59063;BME280;44851;45.648;9.004;2023-04-06T04:34:39;99252.03;;;4.62;44.64
59063;BME280;44851;45.648;9.004;2023-04-06T04:37:05;99247.13;;;4.72;45.13
59063;BME280;44851;45.648;9.004;2023-04-06T04:39:31;99250.06;;;4.80;44.70
59063;BME280;44851;45.648;9.004;2023-04-06T04:41:56;99247.09;;;4.86;44.80
59063;BME280;44851;45.648;9.004;2023-04-06T04:44:21;99249.91;;;4.69;44.27
59063;BME280;44851;45.648;9.004;2023-04-06T04:46:47;99247.16;;;4.57;44.54
59063;BME280;44851;45.648;9.004;2023-04-06T04:49:12;99247.75;;;4.48;44.87
59063;BME280;44851;45.648;9.004;2023-04-06T04:51:37;99244.34;;;4.48;44.74
59063;BME280;44851;45.648;9.004;2023-04-06T04:54:03;99255.00;;;4.42;44.82
59063;BME280;44851;45.648;9.004;2023-04-06T04:56:28;99247.81;;;4.47;44.37
59063;BME280;44851;45.648;9.004;2023-04-06T04:58:54;99253.25;;;4.56;44.63
59063;BME280;44851;45.648;9.004;2023-04-06T05:01:20;99253.47;;;4.53;44.86
59063;BME280;44851;45.648;9.004;2023-04-06T05:03:45;99258.78;;;4.50;44.82
59063;BME280;44851;45.648;9.004;2023-04-06T05:06:10;99254.91;;;4.57;44.81
59063;BME280;44851;45.648;9.004;2023-04-06T05:08:36;99244.56;;;4.57;45.24
59063;BME280;44851;45.648;9.004;2023-04-06T05:11:01;99247.91;;;4.59;44.64
59063;BME280;44851;45.648;9.004;2023-04-06T05:13:27;99258.97;;;4.47;44.33
59063;BME280;44851;45.648;9.004;2023-04-06T05:15:52;99252.53;;;4.54;43.87
59063;BME280;44851;45.648;9.004;2023-04-06T05:18:18;99255.66;;;4.59;44.02
59063;BME280;44851;45.648;9.004;2023-04-06T05:20:43;99256.75;;;4.55;43.87
59063;BME280;44851;45.648;9.004;2023-04-06T05:23:08;99267.25;;;4.52;43.96
59063;BME280;44851;45.648;9.004;2023-04-06T05:25:34;99256.88;;;4.54;43.79
59063;BME280;44851;45.648;9.004;2023-04-06T05:28:00;99262.75;;;4.56;44.33
59063;BME280;44851;45.648;9.004;2023-04-06T05:30:25;99259.88;;;4.61;43.98
59063;BME280;44851;45.648;9.004;2023-04-06T05:32:51;99262.56;;;4.59;44.01
59063;BME280;44851;45.648;9.004;2023-04-06T05:35:16;99266.53;;;4.65;44.49
59063;BME280;44851;45.648;9.004;2023-04-06T05:37:42;99273.78;;;4.72;44.00
59063;BME280;44851;45.648;9.004;2023-04-06T05:40:08;99274.69;;;4.85;44.67
59063;BME280;44851;45.648;9.004;2023-04-06T05:42:37;99271.84;;;4.76;43.78
59063;BME280;44851;45.648;9.004;2023-04-06T05:45:04;99275.69;;;4.83;44.58
59063;BME280;44851;45.648;9.004;2023-04-06T05:47:30;99267.41;;;4.78;44.29
59063;BME280;44851;45.648;9.004;2023-04-06T05:49:55;99270.34;;;4.86;44.04
59063;BME280;44851;45.648;9.004;2023-04-06T05:52:20;99276.06;;;4.91;44.08
59063;BME280;44851;45.648;9.004;2023-04-06T05:54:46;99281.00;;;4.94;43.58
59063;BME280;44851;45.648;9.004;2023-04-06T05:57:11;99279.72;;;5.01;43.70
59063;BME280;44851;45.648;9.004;2023-04-06T05:59:37;99271.03;;;5.02;43.34
59063;BME280;44851;45.648;9.004;2023-04-06T06:02:02;99266.13;;;5.12;43.62
59063;BME280;44851;45.648;9.004;2023-04-06T06:04:27;99268.19;;;5.20;43.01
59063;BME280;44851;45.648;9.004;2023-04-06T06:06:53;99277.03;;;5.43;43.38
59063;BME280;44851;45.648;9.004;2023-04-06T06:09:18;99279.66;;;5.55;42.34
59063;BME280;44851;45.648;9.004;2023-04-06T06:11:43;99282.66;;;5.75;42.54
59063;BME280;44851;45.648;9.004;2023-04-06T06:14:09;99276.78;;;5.85;41.48
59063;BME280;44851;45.648;9.004;2023-04-06T06:16:34;99278.69;;;5.96;42.50
59063;BME280;44851;45.648;9.004;2023-04-06T06:19:00;99281.88;;;6.12;41.54
59063;BME280;44851;45.648;9.004;2023-04-06T06:21:25;99284.88;;;6.32;40.90
59063;BME280;44851;45.648;9.004;2023-04-06T06:23:51;99289.44;;;6.41;40.61
59063;BME280;44851;45.648;9.004;2023-04-06T06:26:19;99280.47;;;6.71;41.35
59063;BME280;44851;45.648;9.004;2023-04-06T06:28:44;99286.22;;;6.87;41.00
59063;BME280;44851;45.648;9.004;2023-04-06T06:31:09;99282.66;;;7.01;41.28
59063;BME280;44851;45.648;9.004;2023-04-06T06:33:35;99283.06;;;7.18;40.53
59063;BME280;44851;45.648;9.004;2023-04-06T06:36:00;99286.50;;;7.19;39.26
59063;BME280;44851;45.648;9.004;2023-04-06T06:38:26;99280.81;;;7.38;40.11
59063;BME280;44851;45.648;9.004;2023-04-06T06:40:52;99284.06;;;7.53;40.31
59063;BME280;44851;45.648;9.004;2023-04-06T06:43:17;99284.50;;;7.82;40.72
59063;BME280;44851;45.648;9.004;2023-04-06T06:45:43;99284.19;;;7.97;40.75
59063;BME280;44851;45.648;9.004;2023-04-06T06:48:09;99285.63;;;8.02;38.38
59063;BME280;44851;45.648;9.004;2023-04-06T06:50:34;99279.84;;;8.20;38.94
59063;BME280;44851;45.648;9.004;2023-04-06T06:53:00;99280.78;;;8.31;40.42
59063;BME280;44851;45.648;9.004;2023-04-06T06:55:25;99288.13;;;8.48;38.28
59063;BME280;44851;45.648;9.004;2023-04-06T06:57:52;99277.00;;;8.57;38.58
59063;BME280;44851;45.648;9.004;2023-04-06T07:00:18;99278.19;;;8.64;36.28
59063;BME280;44851;45.648;9.004;2023-04-06T07:02:45;99283.13;;;8.67;38.94
59063;BME280;44851;45.648;9.004;2023-04-06T07:05:10;99279.31;;;8.83;39.28
59063;BME280;44851;45.648;9.004;2023-04-06T07:07:36;99274.34;;;8.91;38.02
59063;BME280;44851;45.648;9.004;2023-04-06T07:10:01;99276.66;;;9.05;38.89
59063;BME280;44851;45.648;9.004;2023-04-06T07:25:55;99277.31;;;9.82;34.30
59063;BME280;44851;45.648;9.004;2023-04-06T07:28:21;99282.50;;;10.03;34.58
59063;BME280;44851;45.648;9.004;2023-04-06T07:30:47;99282.38;;;10.35;35.45
59063;BME280;44851;45.648;9.004;2023-04-06T07:33:12;99276.53;;;10.53;35.41
59063;BME280;44851;45.648;9.004;2023-04-06T07:35:38;99285.19;;;10.94;35.57
59063;BME280;44851;45.648;9.004;2023-04-06T07:38:05;99274.22;;;11.09;30.54
59063;BME280;44851;45.648;9.004;2023-04-06T07:40:31;99280.97;;;11.31;33.86
59063;BME280;44851;45.648;9.004;2023-04-06T07:42:59;99279.31;;;11.50;30.71
59063;BME280;44851;45.648;9.004;2023-04-06T07:45:25;99275.84;;;11.78;32.49
59063;BME280;44851;45.648;9.004;2023-04-06T07:47:50;99281.56;;;12.11;31.19
59063;BME280;44851;45.648;9.004;2023-04-06T07:50:16;99278.22;;;12.28;30.15
59063;BME280;44851;45.648;9.004;2023-04-06T07:52:41;99281.00;;;12.17;27.02
59063;BME280;44851;45.648;9.004;2023-04-06T07:55:07;99276.84;;;12.24;27.49
59063;BME280;44851;45.648;9.004;2023-04-06T07:57:32;99276.97;;;12.32;24.80
59063;BME280;44851;45.648;9.004;2023-04-06T07:59:58;99278.41;;;12.44;26.19
59063;BME280;44851;45.648;9.004;2023-04-06T08:02:23;99279.19;;;12.55;24.77
59063;BME280;44851;45.648;9.004;2023-04-06T08:04:49;99280.44;;;12.78;25.58
59063;BME280;44851;45.648;9.004;2023-04-06T08:07:14;99273.88;;;12.74;27.83
59063;BME280;44851;45.648;9.004;2023-04-06T08:09:40;99271.00;;;12.95;24.58
59063;BME280;44851;45.648;9.004;2023-04-06T08:12:05;99272.97;;;13.11;24.04
59063;BME280;44851;45.648;9.004;2023-04-06T08:14:31;99275.50;;;13.20;24.96
59063;BME280;44851;45.648;9.004;2023-04-06T08:16:56;99278.34;;;13.45;26.46
59063;BME280;44851;45.648;9.004;2023-04-06T08:19:22;99275.06;;;13.61;24.00
59063;BME280;44851;45.648;9.004;2023-04-06T08:21:48;99276.84;;;13.60;23.45
59063;BME280;44851;45.648;9.004;2023-04-06T08:24:14;99283.44;;;13.64;23.12
59063;BME280;44851;45.648;9.004;2023-04-06T08:26:40;99272.38;;;13.96;25.10
59063;BME280;44851;45.648;9.004;2023-04-06T08:29:05;99269.47;;;14.08;23.49
59063;BME280;44851;45.648;9.004;2023-04-06T08:31:34;99279.25;;;14.23;25.22
59063;BME280;44851;45.648;9.004;2023-04-06T08:34:00;99266.38;;;14.38;23.49
59063;BME280;44851;45.648;9.004;2023-04-06T08:36:26;99269.03;;;14.46;22.30
59063;BME280;44851;45.648;9.004;2023-04-06T08:38:52;99268.91;;;14.22;21.75
59063;BME280;44851;45.648;9.004;2023-04-06T08:41:19;99271.94;;;14.35;23.50
59063;BME280;44851;45.648;9.004;2023-04-06T08:43:58;99266.78;;;14.60;22.51
59063;BME280;44851;45.648;9.004;2023-04-06T08:46:24;99265.47;;;14.64;22.81
59063;BME280;44851;45.648;9.004;2023-04-06T08:49:02;99266.25;;;14.48;22.93
59063;BME280;44851;45.648;9.004;2023-04-06T08:51:28;99266.81;;;14.68;21.93
59063;BME280;44851;45.648;9.004;2023-04-06T08:53:58;99259.63;;;14.86;24.72
59063;BME280;44851;45.648;9.004;2023-04-06T08:56:24;99260.97;;;14.82;22.38
59063;BME280;44851;45.648;9.004;2023-04-06T08:58:50;99260.38;;;14.54;21.99
59063;BME280;44851;45.648;9.004;2023-04-06T09:01:20;99252.53;;;14.70;23.63
59063;BME280;44851;45.648;9.004;2023-04-06T09:03:48;99248.84;;;14.81;25.24
59063;BME280;44851;45.648;9.004;2023-04-06T09:06:14;99243.63;;;14.97;23.71
59063;BME280;44851;45.648;9.004;2023-04-06T09:08:40;99251.13;;;14.84;22.16
59063;BME280;44851;45.648;9.004;2023-04-06T09:11:06;99246.78;;;15.25;25.11
59063;BME280;44851;45.648;9.004;2023-04-06T09:13:44;99243.00;;;15.36;22.25
59063;BME280;44851;45.648;9.004;2023-04-06T09:16:10;99240.00;;;15.07;20.67
59063;BME280;44851;45.648;9.004;2023-04-06T09:18:35;99241.06;;;15.30;23.90
59063;BME280;44851;45.648;9.004;2023-04-06T09:21:05;99239.56;;;15.68;23.29
59063;BME280;44851;45.648;9.004;2023-04-06T09:23:31;99236.44;;;15.56;23.11
59063;BME280;44851;45.648;9.004;2023-04-06T09:28:52;99234.78;;;15.72;21.45
59063;BME280;44851;45.648;9.004;2023-04-06T09:31:30;99235.44;;;15.66;20.57
59063;BME280;44851;45.648;9.004;2023-04-06T09:33:56;99231.19;;;15.56;21.02
59063;BME280;44851;45.648;9.004;2023-04-06T09:36:32;99231.84;;;15.67;21.00
59063;BME280;44851;45.648;9.004;2023-04-06T09:39:01;99241.16;;;15.86;22.66
59063;BME280;44851;45.648;9.004;2023-04-06T09:41:28;99242.81;;;15.70;20.99
59063;BME280;44851;45.648;9.004;2023-04-06T09:44:05;99230.78;;;15.92;20.61
59063;BME280;44851;45.648;9.004;2023-04-06T09:46:33;99236.84;;;15.93;22.71
59063;BME280;44851;45.648;9.004;2023-04-06T09:49:01;99235.75;;;15.79;21.22
59063;BME280;44851;45.648;9.004;2023-04-06T09:51:35;99229.84;;;15.61;20.37
59063;BME280;44851;45.648;9.004;2023-04-06T09:54:02;99225.91;;;15.73;21.70
59063;BME280;44851;45.648;9.004;2023-04-06T09:56:33;99222.53;;;16.03;22.05
59063;BME280;44851;45.648;9.004;2023-04-06T09:59:08;99217.53;;;16.33;23.53
59063;BME280;44851;45.648;9.004;2023-04-06T10:01:35;99215.47;;;16.82;26.22
59063;BME280;44851;45.648;9.004;2023-04-06T10:04:13;99214.59;;;16.90;22.35
59063;BME280;44851;45.648;9.004;2023-04-06T10:06:43;99212.22;;;16.72;21.11
59063;BME280;44851;45.648;9.004;2023-04-06T10:09:10;99203.88;;;16.69;22.61
59063;BME280;44851;45.648;9.004;2023-04-06T10:11:36;99200.97;;;16.64;20.66
59063;BME280;44851;45.648;9.004;2023-04-06T10:14:02;99206.63;;;16.52;20.81
59063;BME280;44851;45.648;9.004;2023-04-06T10:16:27;99196.88;;;16.14;19.41
59063;BME280;44851;45.648;9.004;2023-04-06T10:19:01;99193.91;;;16.56;19.63
59063;BME280;44851;45.648;9.004;2023-04-06T10:21:28;99199.63;;;16.91;21.17
59063;BME280;44851;45.648;9.004;2023-04-06T10:24:00;99196.38;;;17.11;21.68
59063;BME280;44851;45.648;9.004;2023-04-06T10:26:26;99192.56;;;16.91;19.59
59063;BME280;44851;45.648;9.004;2023-04-06T10:28:51;99191.22;;;17.18;20.99
59063;BME280;44851;45.648;9.004;2023-04-06T10:31:27;99198.22;;;17.26;20.29
59063;BME280;44851;45.648;9.004;2023-04-06T10:34:01;99186.88;;;17.02;19.35
59063;BME280;44851;45.648;9.004;2023-04-06T10:36:31;99180.31;;;16.98;19.32
59063;BME280;44851;45.648;9.004;2023-04-06T10:38:59;99178.91;;;16.87;20.06
59063;BME280;44851;45.648;9.004;2023-04-06T10:41:32;99189.09;;;16.68;19.41
59063;BME280;44851;45.648;9.004;2023-04-06T10:43:58;99187.47;;;17.12;22.68
59063;BME280;44851;45.648;9.004;2023-04-06T10:46:25;99184.88;;;17.04;22.41
59063;BME280;44851;45.648;9.004;2023-04-06T10:48:51;99178.56;;;16.91;20.78
59063;BME280;44851;45.648;9.004;2023-04-06T10:51:17;99176.22;;;16.96;20.50
59063;BME280;44851;45.648;9.004;2023-04-06T10:53:47;99177.97;;;17.03;21.45
59063;BME280;44851;45.648;9.004;2023-04-06T10:56:17;99172.34;;;16.60;20.01
59063;BME280;44851;45.648;9.004;2023-04-06T10:58:44;99173.81;;;16.32;21.06
59063;BME280;44851;45.648;9.004;2023-04-06T11:01:11;99166.63;;;16.80;21.04
59063;BME280;44851;45.648;9.004;2023-04-06T11:03:48;99166.75;;;16.86;22.36
59063;BME280;44851;45.648;9.004;2023-04-06T11:06:22;99164.84;;;16.72;20.44
59063;BME280;44851;45.648;9.004;2023-04-06T11:08:47;99157.75;;;16.81;20.99
59063;BME280;44851;45.648;9.004;2023-04-06T11:11:15;99148.94;;;16.88;21.28
59063;BME280;44851;45.648;9.004;2023-04-06T11:13:51;99153.09;;;16.60;20.55
59063;BME280;44851;45.648;9.004;2023-04-06T11:19:02;99143.00;;;16.95;20.83
59063;BME280;44851;45.648;9.004;2023-04-06T11:21:39;99142.88;;;16.88;19.97
59063;BME280;44851;45.648;9.004;2023-04-06T11:24:09;99134.81;;;17.12;20.23
59063;BME280;44851;45.648;9.004;2023-04-06T11:26:40;99134.81;;;17.12;20.01
59063;BME280;44851;45.648;9.004;2023-04-06T11:29:06;99121.94;;;16.95;20.89
59063;BME280;44851;45.648;9.004;2023-04-06T11:31:38;99125.31;;;17.41;20.86
59063;BME280;44851;45.648;9.004;2023-04-06T11:34:12;99122.88;;;17.54;21.80
59063;BME280;44851;45.648;9.004;2023-04-06T11:36:40;99123.31;;;17.87;21.10
59063;BME280;44851;45.648;9.004;2023-04-06T11:39:07;99121.75;;;17.93;20.29
59063;BME280;44851;45.648;9.004;2023-04-06T11:41:33;99118.16;;;17.64;19.53
59063;BME280;44851;45.648;9.004;2023-04-06T11:44:01;99108.97;;;17.60;20.25
59063;BME280;44851;45.648;9.004;2023-04-06T11:46:28;99117.59;;;17.84;20.45
59063;BME280;44851;45.648;9.004;2023-04-06T11:48:58;99124.41;;;17.49;19.79
59063;BME280;44851;45.648;9.004;2023-04-06T11:51:24;99120.44;;;17.53;20.69
59063;BME280;44851;45.648;9.004;2023-04-06T11:53:49;99108.22;;;17.81;19.82
59063;BME280;44851;45.648;9.004;2023-04-06T11:56:28;99103.25;;;18.01;20.39
59063;BME280;44851;45.648;9.004;2023-04-06T11:58:55;99093.19;;;18.48;23.15
59063;BME280;44851;45.648;9.004;2023-04-06T12:01:22;99088.53;;;18.28;20.95
59063;BME280;44851;45.648;9.004;2023-04-06T12:03:47;99084.06;;;18.50;21.07
59063;BME280;44851;45.648;9.004;2023-04-06T12:06:13;99087.69;;;18.06;19.55
59063;BME280;44851;45.648;9.004;2023-04-06T12:08:39;99085.41;;;18.39;20.69
59063;BME280;44851;45.648;9.004;2023-04-06T12:11:05;99081.53;;;18.21;20.17
59063;BME280;44851;45.648;9.004;2023-04-06T12:13:30;99076.66;;;18.17;19.49
59063;BME280;44851;45.648;9.004;2023-04-06T12:15:55;99068.50;;;18.55;20.89
59063;BME280;44851;45.648;9.004;2023-04-06T12:18:21;99068.50;;;18.55;19.78
59063;BME280;44851;45.648;9.004;2023-04-06T12:20:46;99066.59;;;18.28;20.72
59063;BME280;44851;45.648;9.004;2023-04-06T12:23:12;99061.44;;;18.41;20.30
59063;BME280;44851;45.648;9.004;2023-04-06T12:25:39;99060.56;;;18.77;21.56
59063;BME280;44851;45.648;9.004;2023-04-06T12:28:04;99053.25;;;18.14;19.59
59063;BME280;44851;45.648;9.004;2023-04-06T12:30:30;99057.94;;;17.83;20.41
59063;BME280;44851;45.648;9.004;2023-04-06T12:32:57;99057.94;;;17.83;20.93
59063;BME280;44851;45.648;9.004;2023-04-06T12:35:22;99053.19;;;17.93;20.17
59063;BME280;44851;45.648;9.004;2023-04-06T12:37:48;99053.81;;;18.10;20.37
59063;BME280;44851;45.648;9.004;2023-04-06T12:40:13;99056.03;;;18.06;20.51
59063;BME280;44851;45.648;9.004;2023-04-06T12:42:40;99052.53;;;18.06;21.11
59063;BME280;44851;45.648;9.004;2023-04-06T12:45:07;99051.72;;;18.05;20.46
59063;BME280;44851;45.648;9.004;2023-04-06T12:47:33;99041.84;;;17.78;21.46
59063;BME280;44851;45.648;9.004;2023-04-06T12:49:58;99042.72;;;17.63;20.71
59063;BME280;44851;45.648;9.004;2023-04-06T12:52:24;99036.97;;;18.11;21.32
59063;BME280;44851;45.648;9.004;2023-04-06T12:54:50;99035.56;;;17.79;20.78
59063;BME280;44851;45.648;9.004;2023-04-06T12:57:16;99031.06;;;17.73;21.27
59063;BME280;44851;45.648;9.004;2023-04-06T12:59:45;99031.00;;;17.36;21.67
59063;BME280;44851;45.648;9.004;2023-04-06T13:02:11;99034.38;;;17.16;21.71
59063;BME280;44851;45.648;9.004;2023-04-06T13:04:37;99026.78;;;16.98;21.85
59063;BME280;44851;45.648;9.004;2023-04-06T13:07:02;99026.19;;;17.10;21.78
59063;BME280;44851;45.648;9.004;2023-04-06T13:09:27;99019.63;;;17.06;21.32
59063;BME280;44851;45.648;9.004;2023-04-06T13:11:53;99030.75;;;17.17;21.45
59063;BME280;44851;45.648;9.004;2023-04-06T13:14:18;99023.53;;;17.55;21.70
59063;BME280;44851;45.648;9.004;2023-04-06T13:16:44;99016.66;;;17.90;21.14
59063;BME280;44851;45.648;9.004;2023-04-06T13:19:09;99013.31;;;18.17;21.93